ルアンダ の空港の天気 - METARとTAF

ルアンダ国際空港 ( FNLU / LAD ) - アンゴラ ルアンダ
飛行場実況気象(Metar)
観測時間10/15 18:00 WAT (10/15 17:00 UTC)
風向・風速西 4m/s
視程10km以上
天気現象
全天の4割程度の雲 雲底高度 580m
気温25℃
湿度83%
気圧1010hPa
METARFNLU 151700Z 26007KT 9999 SCT019 25/22 Q1010 NOSIG
過去の天気等 Google飛行場航空写真 Wunderground天気予報

過去48時間のMETAR

飛行場予報(TAF)
発表時間: 10/15 18:00 WAT (10/15 17:00 UTC)
予報対象時間: 15日19時 WAT ~ 17日1時 WAT
風向・風速西 4m/s
視程10km以上
全天の4割程度の雲 雲底高度 580m
15日22時 WAT ~ 15日24時 WAT に徐々に
風向・風速南 5m/s
視程9000m
全天の4割程度の雲 雲底高度 670m
少しの積乱雲 雲底高度 700m
16日3時 WAT ~ 16日8時 WAT に一時的に
風向・風速不定 2m/s
視程6000m
天気現象弱い霧雨雨
全天の8割程度の雲 雲底高度 490m
全天を覆う雲 雲底高度 610m
TAF FNLU 151700Z 1518/1624 26007KT 9999 SCT019
BECMG 1521/1523 19010KT 9000 SCT022 FEW023CB
TEMPO 1602/1607 VRB03KT 6000 -DZRA BKN016 OVC020